Flight Track Log - Related Links

Times and Time Zones

All times are in EDT time to prevent confusion due to time zone crossing. See the UAL3767 flight status page for this flight to view local times or setup timezone preferences in your user account.

Time Position Orientation Groundspeed Altitude Reporting Facility
EDT Latitude Longitude Course Direction KTS MPH feet Rate Location/Type
Thu 10:08:47 AM 41.9500 -87.8333 180° South 196 226 3,300  Level Chicago TRACON
Thu 10:10:28 AM 41.8689 -87.7839 156° South 231 266 7,400 2,488 Climbing Chicago Center
Thu 10:11:31 AM 41.7967 -87.7958 187° South 264 304 10,100 3,024 Climbing Chicago Center
Thu 10:12:33 AM 41.7092 -87.8133 188° South 265 305 13,700 2,903 Climbing Chicago Center
Thu 10:13:35 AM 41.6317 -87.8303 189° South 272 313 16,100 2,177 Climbing Chicago Center
Thu 10:14:00 AM 41.3645 -87.6186 180° South  Level Estimated
Thu 10:14:37 AM 41.5486 -87.8489 190° South 286 329 18,200  Level Chicago Center
Thu 10:15:39 AM 41.4592 -87.8681 189° South 308 354 19,800 1,355 Climbing Chicago Center
Thu 10:16:41 AM 41.3575 -87.8781 184° South 359 413 21,000 1,355 Climbing Chicago Center
Thu 10:17:43 AM 41.2481 -87.8756 179° South 385 443 22,600 1,597 Climbing Chicago Center
Thu 10:18:45 AM 41.1372 -87.8756 180° South 396 456 24,300 1,500 Climbing Chicago Center
Thu 10:19:47 AM 41.0008 -87.8742 180° South 407 468 25,700 1,403 Climbing Chicago Center
Thu 10:20:49 AM 40.8853 -87.8717 179° South 415 478 27,200 1,306 Climbing Chicago Center
Thu 10:21:51 AM 40.7672 -87.8717 180° South 421 484 28,400 1,161 Climbing Chicago Center
Thu 10:22:53 AM 40.6500 -87.8678 179° South 423 487 29,600 823 Climbing Chicago Center
Thu 10:23:55 AM 40.5297 -87.8678 180° South 429 494 30,100 774 Climbing Chicago Center
Thu 10:24:57 AM 40.4058 -87.8661 179° South 441 507 31,200 1,266 Climbing Chicago Center
Thu 10:25:44 AM 40.3100 -87.8650 179° South 437 503 32,400 1,431 Climbing Indianapolis Center
Thu 10:26:46 AM 40.1700 -87.8603 179° South 429 494 33,800 1,161 Climbing Indianapolis Center
Thu 10:27:48 AM 40.0581 -87.8536 177° South 413 475 34,800 581 Climbing Indianapolis Center
Thu 10:28:50 AM 39.9444 -87.8489 178° South 410 472 35,000 97 Climbing Indianapolis Center
Thu 10:29:52 AM 39.8239 -87.8433 178° South 426 490 35,000  Level Indianapolis Center
Thu 10:30:54 AM 39.7017 -87.8389 178° South 437 503 35,000  Level Indianapolis Center
Thu 10:31:56 AM 39.5564 -87.8319 178° South 438 504 35,000  Level Indianapolis Center
Thu 10:32:58 AM 39.4367 -87.8267 178° South 434 499 35,000  Level Indianapolis Center
Thu 10:34:00 AM 39.3078 -87.8203 178° South 431 496 35,000  Level Indianapolis Center
Thu 10:35:02 AM 39.1889 -87.8150 178° South 427 491 35,000  Level Indianapolis Center
Thu 10:36:04 AM 39.0683 -87.8103 178° South 431 496 35,000  Level Indianapolis Center
Thu 10:37:06 AM 38.9461 -87.8042 178° South 438 504 35,000  Level Indianapolis Center
Thu 10:38:08 AM 38.8233 -87.8000 178° South 441 507 35,000  Level Indianapolis Center
Thu 10:39:10 AM 38.6994 -87.7947 178° South 445 512 35,000  Level Indianapolis Center
Thu 10:40:13 AM 38.5494 -87.7878 178° South 449 517 35,000  Level Indianapolis Center
Thu 10:41:14 AM 38.4236 -87.7825 178° South 451 519 35,000  Level Indianapolis Center
Thu 10:42:16 AM 38.2978 -87.7786 179° South 452 520 35,000  Level Indianapolis Center
Thu 10:43:18 AM 38.1714 -87.7736 178° South 455 524 35,000  Level Indianapolis Center
Thu 10:44:21 AM 38.0456 -87.7686 178° South 454 522 35,000  Level Indianapolis Center
Thu 10:45:23 AM 37.9203 -87.7503 173° South 458 527 35,000  Level Indianapolis Center
Thu 10:46:25 AM 37.7844 -87.6731 156° South 447 514 35,000  Level Indianapolis Center
Thu 10:47:27 AM 37.6806 -87.6094 154° Southeast 451 519 35,000  Level Indianapolis Center
Thu 10:48:08 AM 37.5878 -87.5569 156° South 415 478 35,000  Level Memphis Center
Thu 10:49:08 AM 37.4883 -87.4950 154° Southeast 433 498 35,000  Level Memphis Center
Thu 10:50:08 AM 37.3722 -87.4261 155° Southeast 449 517 35,000  Level Memphis Center
Thu 10:51:08 AM 37.2622 -87.3572 154° Southeast 443 510 35,000  Level Memphis Center
Thu 10:52:08 AM 37.1503 -87.2886 154° Southeast 448 516 35,000  Level Memphis Center
Thu 10:53:08 AM 37.0358 -87.2203 155° Southeast 448 516 35,000  Level Memphis Center
Thu 10:54:08 AM 36.9239 -87.1519 154° Southeast 448 516 35,000  Level Memphis Center
Thu 10:55:08 AM 36.8011 -87.0792 155° Southeast 448 516 35,000  Level Memphis Center
Thu 10:56:08 AM 36.6867 -87.0114 155° Southeast 448 516 35,000  Level Memphis Center
Thu 10:57:08 AM 36.5744 -86.9436 154° Southeast 448 516 35,000 -200 Level Memphis Center
Thu 10:58:08 AM 36.4642 -86.8761 154° Southeast 441 507 34,600 -850 Descending Memphis Center
Thu 10:59:08 AM 36.3478 -86.8142 157° South 462 532 33,300 -1,600 Descending Memphis Center
Thu 11:00:08 AM 36.2289 -86.7394 153° Southeast 475 547 31,400 -1,150 Descending Memphis Center
Thu 11:01:08 AM 36.1142 -86.6675 153° Southeast 469 540 31,000 -200 Descending Memphis Center
Thu 11:02:08 AM 36.0050 -86.5800 147° Southeast 469 540 31,000  Level Memphis Center
Thu 11:03:08 AM 35.8961 -86.4903 146° Southeast 469 540 31,000  Level Memphis Center
Thu 11:05:49 AM 35.5919 -86.2478 147° Southeast 490 564 31,000  Level Atlanta Center
Thu 11:06:49 AM 35.4831 -86.1583 146° Southeast 474 545 31,000  Level Atlanta Center
Thu 11:07:49 AM 35.3697 -86.0711 148° Southeast 484 557 31,000 -50 Level Atlanta Center
Thu 11:08:49 AM 35.2586 -85.9794 146° Southeast 484 557 30,900 -550 Descending Atlanta Center
Thu 11:09:49 AM 35.1472 -85.8931 148° Southeast 484 557 29,900 -1,300 Descending Atlanta Center
Thu 11:10:49 AM 35.0400 -85.8069 147° Southeast 477 549 28,300 -1,550 Descending Atlanta Center
Thu 11:11:49 AM 34.9328 -85.7236 147° Southeast 472 543 26,800 -1,500 Descending Atlanta Center
Thu 11:12:49 AM 34.8314 -85.6431 147° Southeast 460 529 25,300 -1,400 Descending Atlanta Center
Thu 11:13:49 AM 34.7344 -85.5681 148° Southeast 432 497 24,000 2,850 Descending Atlanta Center
Thu 11:14:49 AM 34.6394 -85.4906 146° Southeast 420 483 31,000 -1,700 Climbing Atlanta Center
Thu 11:15:49 AM 34.5442 -85.4158 147° Southeast 415 478 20,600 -6,050 Descending Atlanta Center
Thu 11:16:49 AM 34.4511 -85.3436 147° Southeast 409 471 18,900 -1,600 Descending Atlanta Center
Thu 11:17:49 AM 34.3661 -85.2769 147° Southeast 388 447 17,400 -1,450 Descending Atlanta Center
Thu 11:18:49 AM 34.2894 -85.2181 148° Southeast 360 414 16,000 -1,200 Descending Atlanta Center
Thu 11:19:49 AM 34.2150 -85.1667 150° Southeast 320 368 15,000 -1,100 Descending Atlanta Center
Thu 11:20:49 AM 34.1611 -85.1008 135° Southeast 284 327 13,800 -1,000 Descending Atlanta Center
Thu 11:21:49 AM 34.1053 -85.0347 136° Southeast 284 327 13,000 -800 Descending Atlanta Center
Thu 11:22:49 AM 34.0517 -84.9689 134° Southeast 279 321 12,200 -1,100 Descending Atlanta Center
Thu 11:23:49 AM 33.9958 -84.9033 136° Southeast 279 321 10,800 -1,400 Descending Atlanta Center
Thu 11:24:49 AM 33.9439 -84.8400 135° Southeast 273 314 9,400 -1,300 Descending Atlanta Center
Thu 11:25:49 AM 33.8881 -84.7794 138° Southeast 273 314 8,200 -1,281 Descending Atlanta Center
Thu 11:26:18 AM 33.8500 -84.7667 164° South 265 305 7,500 -1,416 Descending Atlanta TRACON
Thu 11:27:18 AM 33.7833 -84.7833 192° South 271 312 6,100 -789 Descending Atlanta TRACON
Thu 11:28:12 AM 33.7167 -84.8167 203° Southwest 267 307 6,000 -105 Descending Atlanta TRACON
Thu 11:29:12 AM 33.6667 -84.8500 209° Southwest 237 273 5,900 -316 Descending Atlanta TRACON
Thu 11:30:06 AM 33.6500 -84.8000 112° Southeast 159 183 5,400 -474 Descending Atlanta TRACON
Thu 11:31:06 AM 33.6500 -84.7500 90° East 153 176 5,000 -200 Descending Atlanta TRACON
Thu 11:32:06 AM 33.6500 -84.7000 90° East 156 180 5,000 -158 Level Atlanta TRACON
Thu 11:33:00 AM 33.6500 -84.6667 90° East 152 175 4,700 -650 Descending Atlanta TRACON
Thu 11:34:06 AM 33.6500 -84.6000 90° East 149 171 3,700 -850 Descending Atlanta TRACON
Thu 11:35:00 AM 33.6500 -84.5667 90° East 146 168 3,000 -737 Descending Atlanta TRACON
Thu 11:36:00 AM 33.6500 -84.5167 90° East 117 135 2,300 -650 Descending Atlanta TRACON
Thu 11:37:00 AM 33.6500 -84.4833 90° East 122 140 1,700 -600 Descending Atlanta TRACON
Thu 11:38:00 AM 33.6367 -84.4279 107° East  Level Estimated
Thu 11:45:00 AM 33.6367 -84.4279 107° East  Level Estimated
Thu 11:46:00 AM 33.6367 -84.4279 107° East  Level Estimated

Login

Don't have an account? Register now (free) for customized features, flight alerts, and more!